createdAt,value
2022-12-06T00:02:15.937Z,69.20
2022-12-06T00:04:44.140Z,69.10
2022-12-06T00:09:55.192Z,69.20
2022-12-06T00:12:23.336Z,69.20
2022-12-06T00:14:51.412Z,69.20
2022-12-06T00:17:20.932Z,69.20
2022-12-06T00:19:49.179Z,69.20
2022-12-06T00:22:17.315Z,69.20
2022-12-06T00:24:45.479Z,69.20
2022-12-06T00:27:13.605Z,69.20
2022-12-06T00:29:41.710Z,69.30
2022-12-06T00:32:12.359Z,69.20
2022-12-06T00:34:45.657Z,69.30
2022-12-06T00:37:13.857Z,69.20
2022-12-06T00:39:41.968Z,69.20
2022-12-06T00:42:10.142Z,69.30
2022-12-06T00:44:38.273Z,69.30
2022-12-06T00:47:06.472Z,69.20
2022-12-06T00:49:34.610Z,69.20
2022-12-06T00:52:04.210Z,69.30
2022-12-06T00:54:32.382Z,69.20
2022-12-06T00:57:00.548Z,69.30
2022-12-06T00:59:28.653Z,69.30
2022-12-06T01:01:56.811Z,69.30
2022-12-06T01:04:24.976Z,69.30
2022-12-06T01:06:53.089Z,69.30
2022-12-06T01:09:22.630Z,69.30
2022-12-06T01:11:56.383Z,69.30
2022-12-06T01:14:24.467Z,69.30
2022-12-06T01:16:52.600Z,69.30
2022-12-06T01:19:20.923Z,69.30
2022-12-06T01:21:50.047Z,69.30
2022-12-06T01:24:18.081Z,69.30
2022-12-06T01:26:47.447Z,69.30
2022-12-06T01:29:15.523Z,69.40
2022-12-06T01:31:43.874Z,69.30
2022-12-06T01:34:17.532Z,69.30
2022-12-06T01:36:45.896Z,69.30
2022-12-06T01:39:13.960Z,69.30
2022-12-06T01:41:41.993Z,69.40
2022-12-06T01:44:45.223Z,69.30
2022-12-06T01:47:18.190Z,69.30
2022-12-06T01:49:48.180Z,69.40
2022-12-06T01:52:16.236Z,69.30
2022-12-06T01:54:44.341Z,69.30
2022-12-06T01:57:13.285Z,69.40
2022-12-06T01:59:41.405Z,69.40
2022-12-06T02:02:10.966Z,69.40
2022-12-06T02:04:39.096Z,69.40
2022-12-06T02:07:07.373Z,69.40
2022-12-06T02:09:35.570Z,69.40
2022-12-06T02:12:03.628Z,69.40
2022-12-06T02:14:33.039Z,69.40
2022-12-06T02:17:08.846Z,69.40
2022-12-06T02:20:06.763Z,69.40
2022-12-06T02:22:49.440Z,69.40
2022-12-06T02:25:33.998Z,69.50
2022-12-06T02:28:23.469Z,69.40
2022-12-06T02:30:54.058Z,69.50
2022-12-06T02:33:23.835Z,69.50
2022-12-06T02:35:54.516Z,69.50
2022-12-06T02:38:25.325Z,69.40
2022-12-06T02:40:56.615Z,69.50
2022-12-06T02:43:27.007Z,69.50
2022-12-06T02:45:57.727Z,69.50
2022-12-06T02:48:25.855Z,69.50
2022-12-06T02:50:55.863Z,69.50
2022-12-06T02:53:23.972Z,69.50
2022-12-06T02:55:52.075Z,69.50
2022-12-06T02:58:20.142Z,69.50
2022-12-06T03:00:48.333Z,69.50
2022-12-06T03:03:30.049Z,69.60
2022-12-06T03:06:34.068Z,69.60
2022-12-06T03:09:07.561Z,69.50
2022-12-06T03:11:41.250Z,69.60
2022-12-06T03:14:14.536Z,69.50
2022-12-06T03:16:44.893Z,69.60
2022-12-06T03:19:16.492Z,69.60
2022-12-06T03:21:46.035Z,69.60
2022-12-06T03:24:15.436Z,69.60
2022-12-06T03:26:44.086Z,69.60
2022-12-06T03:29:12.194Z,69.60
2022-12-06T03:31:40.919Z,69.70
2022-12-06T03:34:11.413Z,69.70
2022-12-06T03:36:40.863Z,69.70
2022-12-06T03:39:09.249Z,69.70
2022-12-06T03:41:38.687Z,69.60
2022-12-06T03:44:06.764Z,69.70
2022-12-06T03:46:36.488Z,69.70
2022-12-06T03:49:05.917Z,69.70
2022-12-06T03:51:34.785Z,69.70
2022-12-06T03:54:05.436Z,69.70
2022-12-06T03:56:37.241Z,69.70
2022-12-06T03:59:05.714Z,69.70
2022-12-06T04:01:34.034Z,69.70
2022-12-06T04:04:02.196Z,69.70
2022-12-06T04:06:30.305Z,69.70
2022-12-06T04:09:18.834Z,69.70
2022-12-06T04:11:48.277Z,69.70
2022-12-06T04:14:16.417Z,69.80
2022-12-06T04:17:01.943Z,69.80
2022-12-06T04:19:30.149Z,69.80
2022-12-06T04:22:15.512Z,69.80
2022-12-06T04:24:43.750Z,69.90
2022-12-06T04:27:30.633Z,69.80
2022-12-06T04:30:16.343Z,69.80
2022-12-06T04:33:01.992Z,69.90
2022-12-06T04:35:47.553Z,69.90
2022-12-06T04:38:33.147Z,69.90
2022-12-06T04:41:01.221Z,69.90
2022-12-06T04:43:44.473Z,69.90
2022-12-06T04:46:12.811Z,69.90
2022-12-06T04:48:40.978Z,69.90
2022-12-06T04:51:13.167Z,70.00
2022-12-06T04:53:41.563Z,69.90
2022-12-06T04:56:09.656Z,70.00
2022-12-06T04:58:39.116Z,69.90
2022-12-06T05:01:16.187Z,70.00
2022-12-06T05:03:44.713Z,70.00
2022-12-06T05:06:12.839Z,70.00
2022-12-06T05:08:40.935Z,70.00
2022-12-06T05:11:09.007Z,70.00
2022-12-06T05:13:38.474Z,70.00
2022-12-06T05:16:07.956Z,70.00
2022-12-06T05:18:36.202Z,70.00
2022-12-06T05:21:05.629Z,70.00
2022-12-06T05:23:33.744Z,70.00
2022-12-06T05:26:01.796Z,70.00
2022-12-06T05:28:29.985Z,70.10
2022-12-06T05:30:59.418Z,70.00
2022-12-06T05:33:27.654Z,70.10
2022-12-06T05:35:55.712Z,70.10
2022-12-06T05:38:24.016Z,70.10
2022-12-06T05:40:52.080Z,70.10
2022-12-06T05:43:20.115Z,70.10
2022-12-06T05:45:48.262Z,70.10
2022-12-06T05:48:18.690Z,70.10
2022-12-06T05:51:03.787Z,70.10
2022-12-06T05:53:31.867Z,70.20
2022-12-06T05:56:05.383Z,70.10
2022-12-06T05:58:33.575Z,70.10
2022-12-06T06:01:01.733Z,70.20
2022-12-06T06:03:31.221Z,70.20
2022-12-06T06:06:00.345Z,70.20
2022-12-06T06:08:28.788Z,70.20
2022-12-06T06:10:56.918Z,70.20
2022-12-06T06:13:25.026Z,70.20
2022-12-06T06:15:53.197Z,70.20
2022-12-06T06:18:21.408Z,70.20
2022-12-06T06:20:51.838Z,70.30
2022-12-06T06:23:24.545Z,70.20
2022-12-06T06:25:52.628Z,70.20
2022-12-06T06:28:20.682Z,70.30
2022-12-06T06:30:48.777Z,70.30
2022-12-06T06:33:16.907Z,70.30
2022-12-06T06:35:45.068Z,70.30
2022-12-06T06:38:14.568Z,70.40
2022-12-06T06:40:42.599Z,70.40
2022-12-06T06:43:20.247Z,70.40
2022-12-06T06:45:53.197Z,70.40
2022-12-06T06:48:21.316Z,70.40
2022-12-06T06:50:53.893Z,70.40
2022-12-06T06:53:26.469Z,70.40
2022-12-06T06:56:00.577Z,70.40
2022-12-06T06:58:28.668Z,70.50
2022-12-06T07:00:57.354Z,70.50
2022-12-06T07:03:25.680Z,70.60
2022-12-06T07:05:53.775Z,70.50
2022-12-06T07:08:22.007Z,70.50
2022-12-06T07:10:51.520Z,70.60
2022-12-06T07:13:20.711Z,70.60
2022-12-06T07:15:48.949Z,70.50
2022-12-06T07:18:17.898Z,70.50
2022-12-06T07:20:46.016Z,70.60
2022-12-06T07:23:14.181Z,70.60
2022-12-06T07:25:42.205Z,70.60
2022-12-06T07:28:11.630Z,70.60
2022-12-06T07:30:39.683Z,70.70
2022-12-06T07:33:07.766Z,70.60
2022-12-06T07:36:10.956Z,70.60
2022-12-06T07:38:23.977Z,70.70
2022-12-06T07:41:07.211Z,70.70
2022-12-06T07:43:54.112Z,70.70
2022-12-06T07:46:22.187Z,70.70
2022-12-06T07:48:50.356Z,70.70
2022-12-06T07:51:19.304Z,70.70
2022-12-06T07:53:47.369Z,70.80
2022-12-06T07:56:15.436Z,70.80
2022-12-06T07:58:45.240Z,70.80
2022-12-06T08:01:13.308Z,70.80
2022-12-06T08:03:41.430Z,70.80
2022-12-06T08:06:09.567Z,70.80
2022-12-06T08:08:37.757Z,70.80
2022-12-06T08:11:07.658Z,70.80
2022-12-06T08:13:36.083Z,70.80
2022-12-06T08:16:07.964Z,70.90
2022-12-06T08:18:41.017Z,70.90
2022-12-06T08:21:09.420Z,70.90
2022-12-06T08:23:37.530Z,70.90
2022-12-06T08:26:06.576Z,70.90
2022-12-06T08:28:35.241Z,70.90
2022-12-06T08:31:08.508Z,70.90
2022-12-06T08:33:36.607Z,70.90
2022-12-06T08:36:08.944Z,71.00
2022-12-06T08:38:37.442Z,71.00
2022-12-06T08:41:05.830Z,71.00
2022-12-06T08:43:34.030Z,71.00
2022-12-06T08:46:02.146Z,71.00
2022-12-06T08:48:31.700Z,71.00
2022-12-06T08:51:03.189Z,71.00
2022-12-06T08:53:31.262Z,71.20
2022-12-06T08:56:02.827Z,71.30
2022-12-06T08:58:31.210Z,71.20
2022-12-06T09:00:59.304Z,71.30
2022-12-06T09:03:27.417Z,71.30
2022-12-06T09:05:56.917Z,71.30
2022-12-06T09:08:25.120Z,71.30
2022-12-06T09:10:53.200Z,71.40
2022-12-06T09:13:21.267Z,71.40
2022-12-06T09:15:49.382Z,71.40
2022-12-06T09:18:17.482Z,71.40
2022-12-06T09:20:45.508Z,71.40
2022-12-06T09:23:14.969Z,71.40
2022-12-06T09:25:43.195Z,71.60
2022-12-06T09:28:11.581Z,71.50
2022-12-06T09:30:39.718Z,71.50
2022-12-06T09:33:07.761Z,71.50
2022-12-06T09:35:35.778Z,71.60
2022-12-06T09:38:03.951Z,71.60
2022-12-06T09:40:39.930Z,71.60
2022-12-06T09:43:20.205Z,71.60
2022-12-06T09:46:06.965Z,71.60
2022-12-06T09:49:08.529Z,71.60
2022-12-06T09:51:47.658Z,71.60
2022-12-06T09:54:25.548Z,71.70
2022-12-06T09:56:59.924Z,71.70
2022-12-06T09:59:30.927Z,71.70
2022-12-06T10:02:15.333Z,71.80
2022-12-06T10:04:54.544Z,71.80
2022-12-06T10:07:26.131Z,71.90
2022-12-06T10:09:59.564Z,71.90
2022-12-06T10:12:45.000Z,71.80
2022-12-06T10:15:20.513Z,71.90
2022-12-06T10:17:56.859Z,72.00
2022-12-06T10:20:31.194Z,72.10
2022-12-06T10:23:04.180Z,71.90
2022-12-06T10:25:35.108Z,72.00
2022-12-06T10:28:08.016Z,71.90
2022-12-06T10:30:36.129Z,72.00
2022-12-06T10:33:06.630Z,72.00
2022-12-06T10:35:41.642Z,72.10
2022-12-06T10:38:24.998Z,72.10
2022-12-06T10:40:56.267Z,72.10
2022-12-06T10:43:29.308Z,72.10
2022-12-06T10:46:25.320Z,72.10
2022-12-06T10:48:58.834Z,72.20
2022-12-06T10:51:41.429Z,72.20
2022-12-06T10:54:19.460Z,72.20
2022-12-06T10:56:47.583Z,72.20
2022-12-06T10:59:22.398Z,72.30
2022-12-06T11:01:53.459Z,72.30
2022-12-06T11:04:23.634Z,72.30
2022-12-06T11:06:54.863Z,72.30
2022-12-06T11:09:27.044Z,72.30
2022-12-06T11:11:55.112Z,72.40
2022-12-06T11:14:26.940Z,72.40
2022-12-06T11:16:56.616Z,72.30
2022-12-06T11:19:28.649Z,72.50
2022-12-06T11:21:59.682Z,72.40
2022-12-06T11:24:29.362Z,72.40
2022-12-06T11:27:00.443Z,72.50
2022-12-06T11:29:30.925Z,72.60
2022-12-06T11:31:59.973Z,72.60
2022-12-06T11:34:32.409Z,72.60
2022-12-06T11:37:00.872Z,72.60
2022-12-06T11:39:29.021Z,72.60
2022-12-06T11:41:58.545Z,72.60
2022-12-06T11:44:27.386Z,72.60
2022-12-06T11:46:57.907Z,72.60
2022-12-06T11:49:28.778Z,72.80
2022-12-06T11:51:56.846Z,72.70
2022-12-06T11:54:27.808Z,72.80
2022-12-06T11:56:55.829Z,72.80
2022-12-06T11:59:25.933Z,72.80
2022-12-06T12:01:55.267Z,72.90
2022-12-06T12:04:36.549Z,72.90
2022-12-06T12:07:07.575Z,73.00
2022-12-06T12:09:37.544Z,72.90
2022-12-06T12:12:06.698Z,72.90
2022-12-06T12:14:39.123Z,72.90
2022-12-06T12:17:15.926Z,72.90
2022-12-06T12:19:47.991Z,73.00
2022-12-06T12:22:21.972Z,73.00
2022-12-06T12:27:47.111Z,73.10
2022-12-06T12:30:34.484Z,73.10
2022-12-06T12:33:17.640Z,73.20
2022-12-06T12:35:47.644Z,73.20
2022-12-06T12:38:17.853Z,73.30
2022-12-06T12:40:49.824Z,73.30
2022-12-06T12:43:21.361Z,73.20
2022-12-06T12:46:07.742Z,73.30
2022-12-06T12:48:35.879Z,73.30
2022-12-06T12:51:06.774Z,73.30
2022-12-06T12:53:38.216Z,73.30
2022-12-06T12:56:10.714Z,73.20
2022-12-06T12:58:38.863Z,73.30
2022-12-06T13:01:23.100Z,73.30
2022-12-06T13:03:52.728Z,73.40
2022-12-06T13:06:26.650Z,73.40
2022-12-06T13:08:54.645Z,73.30
2022-12-06T13:11:22.708Z,73.30
2022-12-06T13:13:51.587Z,73.50
2022-12-06T13:16:21.120Z,73.40
2022-12-06T13:18:50.264Z,73.40
2022-12-06T13:21:22.306Z,73.40
2022-12-06T13:23:51.615Z,73.50
2022-12-06T13:26:21.740Z,73.40
2022-12-06T13:29:01.419Z,73.40
2022-12-06T13:31:33.161Z,73.60
2022-12-06T13:34:03.823Z,73.50
2022-12-06T13:36:34.333Z,73.40
2022-12-06T13:39:21.861Z,73.40
2022-12-06T13:42:13.927Z,73.40
2022-12-06T13:44:42.731Z,73.50
2022-12-06T13:47:39.566Z,73.50
2022-12-06T13:50:40.609Z,73.50
2022-12-06T13:53:10.123Z,73.60
2022-12-06T13:55:57.594Z,73.70
2022-12-06T13:58:41.384Z,73.50
2022-12-06T14:01:40.358Z,73.70
2022-12-06T14:07:02.616Z,73.60
2022-12-06T14:09:42.388Z,73.80
2022-12-06T14:12:16.706Z,73.70
2022-12-06T14:14:46.461Z,73.70
2022-12-06T14:17:32.106Z,73.70
2022-12-06T14:20:03.893Z,73.80
2022-12-06T14:22:34.710Z,73.70
2022-12-06T14:25:06.949Z,73.60
2022-12-06T14:27:43.409Z,73.60
2022-12-06T14:30:24.886Z,73.70
2022-12-06T14:32:54.805Z,73.80
2022-12-06T14:35:26.278Z,73.90
2022-12-06T14:37:55.305Z,73.70
2022-12-06T14:43:15.699Z,73.70
2022-12-06T14:45:43.733Z,73.70
2022-12-06T14:48:11.979Z,73.70
2022-12-06T14:50:42.486Z,73.60
2022-12-06T14:53:13.732Z,73.60
2022-12-06T14:55:55.081Z,73.60
2022-12-06T14:58:24.294Z,73.70
2022-12-06T15:00:54.612Z,73.70
2022-12-06T15:03:29.061Z,73.70
2022-12-06T15:06:15.300Z,73.70
2022-12-06T15:08:43.394Z,73.70
2022-12-06T15:11:52.715Z,73.80
2022-12-06T15:14:22.121Z,73.70
2022-12-06T15:17:01.243Z,73.70
2022-12-06T15:19:29.689Z,73.80
2022-12-06T15:21:57.916Z,73.70
2022-12-06T15:24:32.170Z,73.80
2022-12-06T15:27:02.115Z,73.80
2022-12-06T15:29:30.247Z,73.80
2022-12-06T15:31:58.352Z,73.90
2022-12-06T15:34:27.671Z,73.80
2022-12-06T15:37:15.166Z,73.80
2022-12-06T15:39:44.122Z,73.80
2022-12-06T15:42:17.891Z,73.70
2022-12-06T15:44:49.434Z,73.70
2022-12-06T15:47:28.585Z,73.80
2022-12-06T15:49:58.210Z,73.70
2022-12-06T15:52:27.578Z,73.80
2022-12-06T15:54:55.582Z,73.80
2022-12-06T15:57:25.050Z,73.70
2022-12-06T15:59:53.087Z,73.80
2022-12-06T16:02:21.239Z,73.80
2022-12-06T16:04:51.307Z,73.80
2022-12-06T16:07:19.712Z,73.80
2022-12-06T16:09:48.098Z,73.80
2022-12-06T16:12:25.554Z,73.90
2022-12-06T16:14:53.627Z,73.90
2022-12-06T16:17:21.636Z,73.80
2022-12-06T16:20:07.273Z,73.80
2022-12-06T16:22:53.069Z,73.80
2022-12-06T16:25:21.198Z,73.80
2022-12-06T16:27:50.689Z,73.80
2022-12-06T16:30:19.793Z,73.80
2022-12-06T16:32:47.838Z,73.90
2022-12-06T16:35:15.990Z,73.90
2022-12-06T16:37:44.052Z,73.80
2022-12-06T16:40:14.132Z,73.90
2022-12-06T16:42:42.224Z,73.80
2022-12-06T16:45:17.614Z,73.80
2022-12-06T16:47:45.902Z,73.80
2022-12-06T16:50:17.794Z,73.80
2022-12-06T16:52:46.016Z,73.90
2022-12-06T16:55:14.095Z,73.90
2022-12-06T16:57:42.119Z,73.90
2022-12-06T17:00:13.437Z,73.90
2022-12-06T17:02:45.435Z,73.90
2022-12-06T17:05:17.405Z,73.90
2022-12-06T17:07:45.564Z,73.90
2022-12-06T17:10:15.721Z,73.90
2022-12-06T17:12:43.827Z,73.90
2022-12-06T17:15:14.804Z,74.00
2022-12-06T17:17:42.961Z,74.00
2022-12-06T17:20:11.655Z,73.90
2022-12-06T17:22:40.331Z,73.90
2022-12-06T17:25:09.556Z,73.90
2022-12-06T17:27:38.388Z,73.90
2022-12-06T17:30:08.571Z,74.00
2022-12-06T17:32:38.015Z,73.90
2022-12-06T17:35:09.546Z,74.00
2022-12-06T17:37:37.620Z,73.90
2022-12-06T17:40:06.499Z,73.90
2022-12-06T17:42:51.831Z,74.00
2022-12-06T17:45:24.668Z,74.00
2022-12-06T17:47:54.325Z,73.90
2022-12-06T17:50:22.351Z,74.00
2022-12-06T17:52:50.541Z,74.00
2022-12-06T17:55:18.707Z,74.00
2022-12-06T17:57:46.783Z,73.90
2022-12-06T18:00:16.465Z,74.00
2022-12-06T18:02:44.666Z,74.00
2022-12-06T18:05:14.182Z,74.00
2022-12-06T18:07:42.662Z,74.00
2022-12-06T18:10:11.582Z,74.00
2022-12-06T18:12:39.668Z,74.00
2022-12-06T18:15:28.629Z,74.00
2022-12-06T18:17:56.652Z,74.10
2022-12-06T18:20:26.086Z,74.00
2022-12-06T18:22:54.159Z,74.00
2022-12-06T18:25:22.289Z,74.10
2022-12-06T18:27:50.326Z,74.00
2022-12-06T18:30:18.604Z,74.10
2022-12-06T18:32:46.752Z,74.00
2022-12-06T18:35:15.054Z,74.10
2022-12-06T18:37:44.579Z,74.00
2022-12-06T18:40:23.434Z,74.10
2022-12-06T18:42:52.267Z,74.10
2022-12-06T18:45:20.315Z,74.10
2022-12-06T18:47:48.597Z,74.10
2022-12-06T18:50:16.841Z,74.10
2022-12-06T18:52:46.505Z,74.00
2022-12-06T18:55:14.584Z,74.10
2022-12-06T18:57:43.009Z,74.10
2022-12-06T19:00:12.357Z,74.10
2022-12-06T19:02:40.426Z,74.10
2022-12-06T19:05:09.058Z,74.10
2022-12-06T19:07:37.408Z,74.10
2022-12-06T19:10:08.396Z,74.10
2022-12-06T19:12:36.584Z,74.10
2022-12-06T19:15:05.097Z,74.20
2022-12-06T19:17:33.304Z,74.20
2022-12-06T19:20:01.806Z,74.10
2022-12-06T19:22:30.129Z,74.20
2022-12-06T19:24:58.276Z,74.20
2022-12-06T19:27:28.112Z,74.30
2022-12-06T19:29:59.192Z,74.30
2022-12-06T19:32:27.600Z,74.20
2022-12-06T19:34:56.727Z,74.20
2022-12-06T19:37:24.771Z,74.20
2022-12-06T19:39:52.821Z,74.30
2022-12-06T19:42:38.230Z,74.30
2022-12-06T19:45:09.733Z,74.30
2022-12-06T19:47:37.766Z,74.30
2022-12-06T19:50:06.980Z,74.20
2022-12-06T19:52:35.055Z,74.30
2022-12-06T19:55:03.204Z,74.20
2022-12-06T19:57:31.261Z,74.20
2022-12-06T19:59:59.626Z,74.30
2022-12-06T20:02:29.407Z,74.20
2022-12-06T20:04:57.499Z,74.30
2022-12-06T20:07:25.568Z,74.30
2022-12-06T20:09:53.657Z,74.30
2022-12-06T20:12:21.738Z,74.30
2022-12-06T20:14:50.312Z,74.30
2022-12-06T20:17:19.214Z,74.40
2022-12-06T20:19:49.176Z,74.30
2022-12-06T20:22:17.846Z,74.30
2022-12-06T20:24:46.425Z,74.30
2022-12-06T20:27:14.529Z,74.40
2022-12-06T20:29:42.745Z,74.40
2022-12-06T20:32:11.242Z,74.50
2022-12-06T20:34:39.398Z,74.50
2022-12-06T20:37:08.847Z,74.40
2022-12-06T20:39:36.910Z,74.40
2022-12-06T20:42:06.031Z,74.40
2022-12-06T20:44:34.391Z,74.40
2022-12-06T20:47:02.625Z,74.40
2022-12-06T20:49:30.791Z,74.50
2022-12-06T20:52:02.518Z,74.50
2022-12-06T20:54:31.973Z,74.50
2022-12-06T20:57:00.003Z,74.50
2022-12-06T20:59:29.453Z,74.50
2022-12-06T21:01:57.781Z,74.50
2022-12-06T21:04:26.607Z,74.60
2022-12-06T21:06:55.019Z,74.60
2022-12-06T21:09:23.119Z,74.60
2022-12-06T21:11:52.582Z,74.60
2022-12-06T21:14:20.619Z,74.60
2022-12-06T21:16:48.867Z,74.60
2022-12-06T21:19:17.553Z,74.60
2022-12-06T21:21:47.506Z,74.60
2022-12-06T21:24:16.720Z,74.60
2022-12-06T21:26:44.938Z,74.70
2022-12-06T21:29:16.047Z,74.60
2022-12-06T21:31:44.166Z,74.70
2022-12-06T21:34:12.594Z,74.90
2022-12-06T21:36:40.656Z,74.80
2022-12-06T21:39:09.058Z,74.80
2022-12-06T21:41:37.417Z,74.80
2022-12-06T21:44:05.481Z,74.80
2022-12-06T21:46:35.090Z,74.90
2022-12-06T21:49:03.249Z,74.80
2022-12-06T21:51:34.752Z,74.70
2022-12-06T21:54:02.794Z,74.80
2022-12-06T21:56:38.191Z,74.90
2022-12-06T21:59:06.350Z,74.80
2022-12-06T22:01:35.992Z,75.00
2022-12-06T22:04:04.764Z,74.80
2022-12-06T22:06:33.579Z,74.90
2022-12-06T22:09:18.271Z,75.00
2022-12-06T22:11:46.539Z,74.90
2022-12-06T22:14:17.502Z,75.00
2022-12-06T22:16:48.667Z,75.00
2022-12-06T22:19:16.949Z,75.00
2022-12-06T22:21:45.022Z,74.90
2022-12-06T22:24:13.104Z,75.00
2022-12-06T22:26:41.192Z,75.10
2022-12-06T22:29:09.850Z,75.10
2022-12-06T22:31:38.073Z,75.20
2022-12-06T22:34:07.702Z,75.10
2022-12-06T22:36:35.873Z,75.20
2022-12-06T22:39:04.148Z,75.20
2022-12-06T22:41:32.266Z,75.20
2022-12-06T22:44:01.149Z,75.30
2022-12-06T22:46:29.524Z,75.30
2022-12-06T22:48:57.882Z,75.40
2022-12-06T22:51:28.148Z,75.60
2022-12-06T22:53:57.159Z,75.50
2022-12-06T22:56:25.324Z,75.50
2022-12-06T22:58:53.780Z,75.50
2022-12-06T23:01:25.383Z,75.50
2022-12-06T23:03:56.622Z,75.60
2022-12-06T23:06:27.430Z,75.50
2022-12-06T23:08:55.682Z,75.50
2022-12-06T23:11:24.711Z,75.60
2022-12-06T23:13:52.835Z,75.70
2022-12-06T23:16:22.265Z,75.70
2022-12-06T23:18:50.497Z,75.70
2022-12-06T23:21:19.722Z,75.70
2022-12-06T23:23:50.342Z,75.70
2022-12-06T23:26:20.128Z,75.60
2022-12-06T23:28:48.269Z,75.80
2022-12-06T23:31:17.040Z,75.80
2022-12-06T23:33:45.557Z,75.70
2022-12-06T23:36:14.825Z,75.80
2022-12-06T23:38:42.947Z,75.90
2022-12-06T23:41:13.144Z,75.90
2022-12-06T23:43:41.261Z,75.90
2022-12-06T23:46:10.063Z,75.80
2022-12-06T23:48:38.180Z,75.80
2022-12-06T23:51:07.034Z,75.90
2022-12-06T23:53:35.402Z,75.90
2022-12-06T23:56:05.224Z,75.90
2022-12-06T23:58:34.672Z,75.90
